createdAt,value
2023-05-02T00:00:04.533Z,8.50
2023-05-02T00:02:53.821Z,8.90
2023-05-02T00:05:22.559Z,8.00
2023-05-02T00:07:52.158Z,7.80
2023-05-02T00:10:20.866Z,7.90
2023-05-02T00:12:49.354Z,8.30
2023-05-02T00:15:17.851Z,9.40
2023-05-02T00:17:46.774Z,8.70
2023-05-02T00:20:15.345Z,8.20
2023-05-02T00:22:43.852Z,7.80
2023-05-02T00:25:16.441Z,8.30
2023-05-02T00:27:51.303Z,8.80
2023-05-02T00:30:21.452Z,8.50
2023-05-02T00:32:50.382Z,8.50
2023-05-02T00:35:18.843Z,9.60
2023-05-02T00:37:47.629Z,8.20
2023-05-02T00:40:16.742Z,8.80
2023-05-02T00:42:48.287Z,8.80
2023-05-02T00:45:16.829Z,9.40
2023-05-02T00:47:45.917Z,9.90
2023-05-02T00:50:14.820Z,7.00
2023-05-02T00:52:45.512Z,8.70
2023-05-02T00:55:14.046Z,7.60
2023-05-02T00:57:45.161Z,8.00
2023-05-02T01:00:14.191Z,8.60
2023-05-02T01:02:59.237Z,7.80
2023-05-02T01:05:46.797Z,8.00
2023-05-02T01:08:40.027Z,8.70
2023-05-02T01:11:40.107Z,8.90
2023-05-02T01:14:11.561Z,8.20
2023-05-02T01:16:42.442Z,9.50
2023-05-02T01:19:46.869Z,8.30
2023-05-02T01:22:22.858Z,8.40
2023-05-02T01:25:00.644Z,8.60
2023-05-02T01:27:35.479Z,9.30
2023-05-02T01:30:07.289Z,9.20
2023-05-02T01:32:39.849Z,8.20
2023-05-02T01:35:11.371Z,8.70
2023-05-02T01:37:41.399Z,9.00
2023-05-02T01:40:12.235Z,11.50
2023-05-02T01:42:42.800Z,9.70
2023-05-02T01:45:12.836Z,8.30
2023-05-02T01:47:43.996Z,8.60
2023-05-02T01:50:16.964Z,8.10
2023-05-02T01:52:47.667Z,9.20
2023-05-02T01:55:17.836Z,9.00
2023-05-02T01:57:51.056Z,8.80
2023-05-02T02:00:21.604Z,8.30
2023-05-02T02:02:53.837Z,8.40
2023-05-02T02:05:24.543Z,9.20
2023-05-02T02:07:53.023Z,9.50
2023-05-02T02:10:23.100Z,8.80
2023-05-02T02:12:54.806Z,9.20
2023-05-02T02:15:29.332Z,11.10
2023-05-02T02:18:05.248Z,9.00
2023-05-02T02:20:35.414Z,9.30
2023-05-02T02:23:08.564Z,9.90
2023-05-02T02:25:38.097Z,9.20
2023-05-02T02:28:08.149Z,9.20
2023-05-02T02:30:37.168Z,9.90
2023-05-02T02:33:06.557Z,9.30
2023-05-02T02:35:42.702Z,9.60
2023-05-02T02:38:29.542Z,8.40
2023-05-02T02:41:06.589Z,10.00
2023-05-02T02:44:13.416Z,9.60
2023-05-02T02:46:48.595Z,9.30
2023-05-02T02:49:43.169Z,9.60
2023-05-02T02:52:30.493Z,9.20
2023-05-02T02:55:07.692Z,8.50
2023-05-02T02:58:08.286Z,9.20
2023-05-02T03:00:38.484Z,10.20
2023-05-02T03:03:08.325Z,9.50
2023-05-02T03:05:37.029Z,12.20
2023-05-02T03:08:05.728Z,10.10
2023-05-02T03:10:34.009Z,9.40
2023-05-02T03:13:02.585Z,9.30
2023-05-02T03:15:48.080Z,11.80
2023-05-02T03:18:17.197Z,9.50
2023-05-02T03:20:45.977Z,9.20
2023-05-02T03:23:14.852Z,9.70
2023-05-02T03:25:43.168Z,9.20
2023-05-02T03:28:12.526Z,10.60
2023-05-02T03:30:42.256Z,9.90
2023-05-02T03:33:11.303Z,10.20
2023-05-02T03:35:42.614Z,9.00
2023-05-02T03:38:11.920Z,9.10
2023-05-02T03:40:40.814Z,9.70
2023-05-02T03:43:11.622Z,9.20
2023-05-02T03:45:40.546Z,11.60
2023-05-02T03:48:10.049Z,9.10
2023-05-02T03:50:38.598Z,10.20
2023-05-02T03:53:08.577Z,9.20
2023-05-02T03:55:43.027Z,9.10
2023-05-02T03:58:12.622Z,9.40
2023-05-02T04:00:41.083Z,9.30
2023-05-02T04:03:09.840Z,9.20
2023-05-02T04:05:41.953Z,9.30
2023-05-02T04:08:11.614Z,10.00
2023-05-02T04:10:40.053Z,10.00
2023-05-02T04:13:11.197Z,10.10
2023-05-02T04:15:42.345Z,9.40
2023-05-02T04:18:11.465Z,8.90
2023-05-02T04:20:39.843Z,8.00
2023-05-02T04:23:08.315Z,8.80
2023-05-02T04:25:37.728Z,7.80
2023-05-02T04:28:06.808Z,7.90
2023-05-02T04:30:36.723Z,8.40
2023-05-02T04:33:10.143Z,8.90
2023-05-02T04:35:41.904Z,8.90
2023-05-02T04:38:13.573Z,7.60
2023-05-02T04:40:43.021Z,8.70
2023-05-02T04:43:11.666Z,7.90
2023-05-02T04:45:59.127Z,7.70
2023-05-02T04:48:32.287Z,8.00
2023-05-02T04:51:02.153Z,9.40
2023-05-02T04:53:31.821Z,9.90
2023-05-02T04:56:00.496Z,10.70
2023-05-02T04:58:29.400Z,10.20
2023-05-02T05:01:02.492Z,10.20
2023-05-02T05:03:31.453Z,11.40
2023-05-02T05:06:00.279Z,9.90
2023-05-02T05:08:29.380Z,33.10
2023-05-02T05:10:58.712Z,15.20
2023-05-02T05:13:29.178Z,10.10
2023-05-02T05:16:04.431Z,10.00
2023-05-02T05:18:41.668Z,9.50
2023-05-02T05:21:12.789Z,10.20
2023-05-02T05:23:46.202Z,8.80
2023-05-02T05:26:18.394Z,11.20
2023-05-02T05:28:50.536Z,12.00
2023-05-02T05:31:19.888Z,12.30
2023-05-02T05:33:51.792Z,11.60
2023-05-02T05:36:22.126Z,10.40
2023-05-02T05:38:52.572Z,9.50
2023-05-02T05:41:23.184Z,10.50
2023-05-02T05:43:57.224Z,9.80
2023-05-02T05:46:27.637Z,8.90
2023-05-02T05:48:57.171Z,8.20
2023-05-02T05:51:27.796Z,7.80
2023-05-02T05:53:58.947Z,7.80
2023-05-02T05:56:28.877Z,7.30
2023-05-02T05:59:07.786Z,8.30
2023-05-02T06:01:36.170Z,7.60
2023-05-02T06:04:09.337Z,5.90
2023-05-02T06:06:44.537Z,7.70
2023-05-02T06:09:16.060Z,6.70
2023-05-02T06:11:44.346Z,6.30
2023-05-02T06:14:13.361Z,5.80
2023-05-02T06:16:42.641Z,6.70
2023-05-02T06:19:11.345Z,6.50
2023-05-02T06:21:41.275Z,5.90
2023-05-02T06:24:09.850Z,7.50
2023-05-02T06:26:38.533Z,7.80
2023-05-02T06:29:07.350Z,6.90
2023-05-02T06:31:35.702Z,5.90
2023-05-02T06:34:04.096Z,5.90
2023-05-02T06:36:32.790Z,5.80
2023-05-02T06:39:01.795Z,5.70
2023-05-02T06:41:30.178Z,5.00
2023-05-02T06:43:58.558Z,6.60
2023-05-02T06:46:30.353Z,12.30
2023-05-02T06:48:58.699Z,6.40
2023-05-02T06:51:28.007Z,5.20
2023-05-02T06:53:56.292Z,5.00
2023-05-02T06:56:28.607Z,4.90
2023-05-02T06:58:57.050Z,3.80
2023-05-02T07:01:25.662Z,3.60
2023-05-02T07:03:54.594Z,4.20
2023-05-02T07:06:23.972Z,5.20
2023-05-02T07:08:52.552Z,5.20
2023-05-02T07:11:21.941Z,4.30
2023-05-02T07:13:56.057Z,4.30
2023-05-02T07:16:25.205Z,4.50
2023-05-02T07:18:53.560Z,4.10
2023-05-02T07:21:21.825Z,4.70
2023-05-02T07:23:50.307Z,4.10
2023-05-02T07:26:20.244Z,3.90
2023-05-02T07:28:48.819Z,3.90
2023-05-02T07:31:18.822Z,4.30
2023-05-02T07:33:47.538Z,4.00
2023-05-02T07:36:16.023Z,2.80
2023-05-02T07:38:44.720Z,2.40
2023-05-02T07:41:14.809Z,2.30
2023-05-02T07:43:43.324Z,1.20
2023-05-02T07:46:12.339Z,1.50
2023-05-02T07:48:43.064Z,1.60
2023-05-02T07:51:13.187Z,1.60
2023-05-02T07:53:41.671Z,1.30
2023-05-02T07:56:10.259Z,2.00
2023-05-02T07:58:38.856Z,1.20
2023-05-02T08:01:07.448Z,1.60
2023-05-02T08:03:36.207Z,1.30
2023-05-02T08:06:04.772Z,1.20
2023-05-02T08:08:33.313Z,1.50
2023-05-02T08:11:02.324Z,1.30
2023-05-02T08:13:30.819Z,1.60
2023-05-02T08:15:59.313Z,1.80
2023-05-02T08:18:28.256Z,1.40
2023-05-02T08:20:58.681Z,1.60
2023-05-02T08:23:26.890Z,1.50
2023-05-02T08:25:55.286Z,1.50
2023-05-02T08:28:23.865Z,1.40
2023-05-02T08:30:52.866Z,1.90
2023-05-02T08:33:21.285Z,1.60
2023-05-02T08:35:50.229Z,1.40
2023-05-02T08:38:19.879Z,1.60
2023-05-02T08:40:48.763Z,1.80
2023-05-02T08:43:17.993Z,1.70
2023-05-02T08:45:52.994Z,1.50
2023-05-02T08:48:22.024Z,1.70
2023-05-02T08:50:52.733Z,1.50
2023-05-02T08:53:21.826Z,1.30
2023-05-02T08:55:51.502Z,2.00
2023-05-02T08:58:19.932Z,1.30
2023-05-02T09:00:49.172Z,1.30
2023-05-02T09:03:31.857Z,1.30
2023-05-02T09:06:07.952Z,1.30
2023-05-02T09:08:37.572Z,1.70
2023-05-02T09:11:08.185Z,1.40
2023-05-02T09:13:37.579Z,1.50
2023-05-02T09:16:08.135Z,2.90
2023-05-02T09:18:39.546Z,1.40
2023-05-02T09:21:13.947Z,2.20
2023-05-02T09:23:52.704Z,1.50
2023-05-02T09:26:33.005Z,1.90
2023-05-02T09:29:03.893Z,1.50
2023-05-02T09:31:54.867Z,1.40
2023-05-02T09:34:24.707Z,1.70
2023-05-02T09:36:56.165Z,1.50
2023-05-02T09:39:29.212Z,1.40
2023-05-02T09:41:58.856Z,1.60
2023-05-02T09:44:37.817Z,1.70
2023-05-02T09:47:08.853Z,1.70
2023-05-02T09:49:49.200Z,3.00
2023-05-02T09:52:29.363Z,1.70
2023-05-02T09:54:58.403Z,2.20
2023-05-02T09:57:41.749Z,1.60
2023-05-02T10:02:43.248Z,1.30
2023-05-02T10:05:13.465Z,1.70
2023-05-02T10:07:41.862Z,1.60
2023-05-02T10:10:18.075Z,1.90
2023-05-02T10:12:54.211Z,1.50
2023-05-02T10:15:26.661Z,1.40
2023-05-02T10:17:59.294Z,1.30
2023-05-02T10:20:35.104Z,1.20
2023-05-02T10:23:04.096Z,1.70
2023-05-02T10:25:34.029Z,1.10
2023-05-02T10:28:03.370Z,1.40
2023-05-02T10:30:32.226Z,0.90
2023-05-02T10:33:02.772Z,1.40
2023-05-02T10:35:32.336Z,1.20
2023-05-02T10:38:01.587Z,1.40
2023-05-02T10:40:31.098Z,1.40
2023-05-02T10:42:59.768Z,1.70
2023-05-02T10:45:31.983Z,1.00
2023-05-02T10:48:19.864Z,2.50
2023-05-02T10:50:56.760Z,1.50
2023-05-02T10:53:27.038Z,1.70
2023-05-02T10:56:28.509Z,1.10
2023-05-02T10:59:27.260Z,1.40
2023-05-02T11:01:55.746Z,1.40
2023-05-02T11:04:24.665Z,1.20
2023-05-02T11:07:02.376Z,1.10
2023-05-02T11:09:33.333Z,1.00
2023-05-02T11:12:02.306Z,1.30
2023-05-02T11:14:39.412Z,0.90
2023-05-02T11:17:09.549Z,1.00
2023-05-02T11:19:38.011Z,1.40
2023-05-02T11:22:22.154Z,1.10
2023-05-02T11:24:51.334Z,0.90
2023-05-02T11:27:38.449Z,1.40
2023-05-02T11:30:11.115Z,1.40
2023-05-02T11:32:46.480Z,1.10
2023-05-02T11:35:18.964Z,0.80
2023-05-02T11:37:57.479Z,0.90
2023-05-02T11:40:27.691Z,1.10
2023-05-02T11:42:57.648Z,0.90
2023-05-02T11:45:37.092Z,1.20
2023-05-02T11:48:07.248Z,1.30
2023-05-02T11:50:48.857Z,1.40
2023-05-02T11:55:55.507Z,1.00
2023-05-02T11:58:26.308Z,1.40
2023-05-02T12:00:54.702Z,1.10
2023-05-02T12:03:30.782Z,1.00
2023-05-02T12:06:13.086Z,0.90
2023-05-02T12:08:43.560Z,1.30
2023-05-02T12:11:16.934Z,1.00
2023-05-02T12:13:50.815Z,1.20
2023-05-02T12:16:19.832Z,1.00
2023-05-02T12:18:49.561Z,0.80
2023-05-02T12:21:18.464Z,1.10
2023-05-02T12:23:47.294Z,1.10
2023-05-02T12:26:25.740Z,1.10
2023-05-02T12:28:55.240Z,1.10
2023-05-02T12:31:24.917Z,1.10
2023-05-02T12:33:57.722Z,1.00
2023-05-02T12:36:30.255Z,1.60
2023-05-02T12:39:00.392Z,1.40
2023-05-02T12:41:39.783Z,0.90
2023-05-02T12:44:08.289Z,1.20
2023-05-02T12:46:37.455Z,1.10
2023-05-02T12:49:12.028Z,1.50
2023-05-02T12:51:41.385Z,1.40
2023-05-02T12:54:20.676Z,0.90
2023-05-02T12:56:51.970Z,1.00
2023-05-02T12:59:31.767Z,1.10
2023-05-02T13:02:00.921Z,1.20
2023-05-02T13:04:40.940Z,0.90
2023-05-02T13:07:09.251Z,1.00
2023-05-02T13:09:37.751Z,1.30
2023-05-02T13:12:06.536Z,1.30
2023-05-02T13:14:35.173Z,1.30
2023-05-02T13:17:04.291Z,0.90
2023-05-02T13:19:32.924Z,0.80
2023-05-02T13:22:01.403Z,1.00
2023-05-02T13:24:29.781Z,1.00
2023-05-02T13:26:57.910Z,0.70
2023-05-02T13:29:26.147Z,1.00
2023-05-02T13:31:54.431Z,1.50
2023-05-02T13:34:22.809Z,0.70
2023-05-02T13:36:51.506Z,0.80
2023-05-02T13:39:20.603Z,0.80
2023-05-02T13:41:49.095Z,0.90
2023-05-02T13:44:17.794Z,1.40
2023-05-02T13:46:46.413Z,1.10
2023-05-02T13:49:14.958Z,1.00
2023-05-02T13:51:43.147Z,1.00
2023-05-02T13:54:11.525Z,1.20
2023-05-02T13:56:40.110Z,1.10
2023-05-02T13:59:10.960Z,0.70
2023-05-02T14:01:40.779Z,1.00
2023-05-02T14:04:09.437Z,1.30
2023-05-02T14:06:38.719Z,1.10
2023-05-02T14:09:07.474Z,0.80
2023-05-02T14:11:36.569Z,0.80
2023-05-02T14:14:05.556Z,0.90
2023-05-02T14:16:35.397Z,1.20
2023-05-02T14:19:04.109Z,0.80
2023-05-02T14:21:35.314Z,1.00
2023-05-02T14:24:03.602Z,0.90
2023-05-02T14:26:32.086Z,1.40
2023-05-02T14:29:01.049Z,1.10
2023-05-02T14:31:29.512Z,1.00
2023-05-02T14:33:58.058Z,0.80
2023-05-02T14:36:27.369Z,1.10
2023-05-02T14:38:55.934Z,0.80
2023-05-02T14:41:24.704Z,0.80
2023-05-02T14:43:53.955Z,0.90
2023-05-02T14:46:22.448Z,1.10
2023-05-02T14:48:51.339Z,1.30
2023-05-02T14:51:19.615Z,1.00
2023-05-02T14:53:49.622Z,0.70
2023-05-02T14:56:18.881Z,1.20
2023-05-02T14:58:47.222Z,1.00
2023-05-02T15:01:17.914Z,1.70
2023-05-02T15:04:04.350Z,1.20
2023-05-02T15:06:35.488Z,0.80
2023-05-02T15:09:05.240Z,0.80
2023-05-02T15:11:33.603Z,1.10
2023-05-02T15:14:02.088Z,0.80
2023-05-02T15:16:30.438Z,1.50
2023-05-02T15:18:59.277Z,1.10
2023-05-02T15:21:27.556Z,0.80
2023-05-02T15:23:56.246Z,1.40
2023-05-02T15:26:27.634Z,1.40
2023-05-02T15:28:56.118Z,0.60
2023-05-02T15:31:24.862Z,0.90
2023-05-02T15:33:53.287Z,1.00
2023-05-02T15:36:22.067Z,1.10
2023-05-02T15:38:50.768Z,1.10
2023-05-02T15:41:19.236Z,1.10
2023-05-02T15:43:47.622Z,0.70
2023-05-02T15:46:17.575Z,1.00
2023-05-02T15:48:45.824Z,0.90
2023-05-02T15:51:14.213Z,1.40
2023-05-02T15:53:44.422Z,1.10
2023-05-02T15:56:13.233Z,1.20
2023-05-02T15:58:42.443Z,1.30
2023-05-02T16:01:10.941Z,1.00
2023-05-02T16:03:39.355Z,1.10
2023-05-02T16:06:08.070Z,0.90
2023-05-02T16:08:36.493Z,0.90
2023-05-02T16:11:04.759Z,1.60
2023-05-02T16:13:33.245Z,1.30
2023-05-02T16:16:01.992Z,1.20
2023-05-02T16:18:31.450Z,0.90
2023-05-02T16:20:59.834Z,1.20
2023-05-02T16:23:28.122Z,1.40
2023-05-02T16:26:00.897Z,1.60
2023-05-02T16:30:58.209Z,1.10
2023-05-02T16:33:26.870Z,1.20
2023-05-02T16:36:02.962Z,2.00
2023-05-02T16:38:31.823Z,1.30
2023-05-02T16:41:05.156Z,1.30
2023-05-02T16:43:33.820Z,1.20
2023-05-02T16:46:07.453Z,1.20
2023-05-02T16:48:35.909Z,1.30
2023-05-02T16:51:04.654Z,1.10
2023-05-02T16:53:33.082Z,1.50
2023-05-02T16:56:01.911Z,1.90
2023-05-02T16:58:30.575Z,1.40
2023-05-02T17:01:01.967Z,1.90
2023-05-02T17:03:30.442Z,1.50
2023-05-02T17:06:01.303Z,2.00
2023-05-02T17:08:30.042Z,1.60
2023-05-02T17:10:58.535Z,1.90
2023-05-02T17:13:26.827Z,1.80
2023-05-02T17:15:56.077Z,2.30
2023-05-02T17:18:26.681Z,1.70
2023-05-02T17:20:55.921Z,2.10
2023-05-02T17:23:24.450Z,1.60
2023-05-02T17:25:52.929Z,1.90
2023-05-02T17:28:21.521Z,2.10
2023-05-02T17:30:54.840Z,1.80
2023-05-02T17:33:23.605Z,1.90
2023-05-02T17:35:53.106Z,1.70
2023-05-02T17:38:21.512Z,1.60
2023-05-02T17:40:49.990Z,1.70
2023-05-02T17:43:18.245Z,1.50
2023-05-02T17:45:46.983Z,1.70
2023-05-02T17:48:15.468Z,1.60
2023-05-02T17:50:44.453Z,1.40
2023-05-02T17:53:12.843Z,1.90
2023-05-02T17:55:41.322Z,1.70
2023-05-02T17:58:09.602Z,2.10
2023-05-02T18:00:38.310Z,1.40
2023-05-02T18:03:08.479Z,1.30
2023-05-02T18:05:40.657Z,2.70
2023-05-02T18:08:10.535Z,2.10
2023-05-02T18:10:40.539Z,1.40
2023-05-02T18:13:09.334Z,1.80
2023-05-02T18:15:37.914Z,1.70
2023-05-02T18:18:06.523Z,3.10
2023-05-02T18:20:40.486Z,2.00
2023-05-02T18:23:09.139Z,2.00
2023-05-02T18:25:37.903Z,1.80
2023-05-02T18:28:13.043Z,2.40
2023-05-02T18:30:45.411Z,2.00
2023-05-02T18:33:13.847Z,1.90
2023-05-02T18:35:49.371Z,2.70
2023-05-02T18:38:18.425Z,2.00
2023-05-02T18:40:48.380Z,2.10
2023-05-02T18:43:16.647Z,2.10
2023-05-02T18:45:52.763Z,1.90
2023-05-02T18:48:22.335Z,2.50
2023-05-02T18:50:51.734Z,1.90
2023-05-02T18:53:22.878Z,2.00
2023-05-02T18:55:51.466Z,2.20
2023-05-02T18:58:21.816Z,1.80
2023-05-02T19:00:51.299Z,1.80
2023-05-02T19:03:19.931Z,1.80
2023-05-02T19:05:50.271Z,2.00
2023-05-02T19:08:18.620Z,1.30
2023-05-02T19:10:47.093Z,2.00
2023-05-02T19:13:16.910Z,1.90
2023-05-02T19:15:48.807Z,2.30
2023-05-02T19:18:23.885Z,1.70
2023-05-02T19:20:52.820Z,2.20
2023-05-02T19:23:21.188Z,2.10
2023-05-02T19:25:49.789Z,1.90
2023-05-02T19:28:22.056Z,1.40
2023-05-02T19:30:50.426Z,1.40
2023-05-02T19:33:19.542Z,1.70
2023-05-02T19:35:48.282Z,1.80
2023-05-02T19:38:16.714Z,1.20
2023-05-02T19:40:44.906Z,1.40
2023-05-02T19:43:13.316Z,1.30
2023-05-02T19:45:41.617Z,1.20
2023-05-02T19:48:11.317Z,1.70
2023-05-02T19:50:40.860Z,3.30
2023-05-02T19:53:11.036Z,2.30
2023-05-02T19:55:39.818Z,1.60
2023-05-02T19:58:08.198Z,2.10
2023-05-02T20:00:38.834Z,1.40
2023-05-02T20:03:07.207Z,1.40
2023-05-02T20:05:35.706Z,1.10
2023-05-02T20:08:04.191Z,1.50
2023-05-02T20:10:32.823Z,2.30
2023-05-02T20:13:01.469Z,1.70
2023-05-02T20:15:30.953Z,1.70
2023-05-02T20:17:59.342Z,1.00
2023-05-02T20:20:28.308Z,2.30
2023-05-02T20:23:00.037Z,1.50
2023-05-02T20:25:28.914Z,1.30
2023-05-02T20:27:57.917Z,1.40
2023-05-02T20:30:26.620Z,1.00
2023-05-02T20:32:55.769Z,1.10
2023-05-02T20:35:24.911Z,1.40
2023-05-02T20:37:54.124Z,1.30
2023-05-02T20:40:22.699Z,1.30
2023-05-02T20:42:51.095Z,1.20
2023-05-02T20:45:24.382Z,1.30
2023-05-02T20:47:53.056Z,1.00
2023-05-02T20:50:21.776Z,1.40
2023-05-02T20:52:50.223Z,1.50
2023-05-02T20:55:18.950Z,1.70
2023-05-02T20:57:51.442Z,1.10
2023-05-02T21:00:22.675Z,1.10
2023-05-02T21:02:51.722Z,1.50
2023-05-02T21:05:20.056Z,1.10
2023-05-02T21:07:48.237Z,1.50
2023-05-02T21:10:16.539Z,1.30
2023-05-02T21:12:44.701Z,1.10
2023-05-02T21:15:14.533Z,1.50
2023-05-02T21:17:43.221Z,1.00
2023-05-02T21:20:12.718Z,1.20
2023-05-02T21:22:42.235Z,1.00
2023-05-02T21:25:11.124Z,1.10
2023-05-02T21:27:39.424Z,1.10
2023-05-02T21:30:09.219Z,1.00
2023-05-02T21:32:37.677Z,1.20
2023-05-02T21:35:06.847Z,1.30
2023-05-02T21:37:35.141Z,0.90
2023-05-02T21:40:04.482Z,0.90
2023-05-02T21:42:32.893Z,1.30
2023-05-02T21:45:01.908Z,1.10
2023-05-02T21:47:30.402Z,1.20
2023-05-02T21:49:58.940Z,1.70
2023-05-02T21:52:27.454Z,1.10
2023-05-02T21:54:55.943Z,1.30
2023-05-02T21:57:24.727Z,1.00
2023-05-02T21:59:53.423Z,1.20
2023-05-02T22:02:21.837Z,1.40
2023-05-02T22:04:51.067Z,1.50
2023-05-02T22:07:19.506Z,1.00
2023-05-02T22:09:47.779Z,1.20
2023-05-02T22:12:16.464Z,1.00
2023-05-02T22:14:45.986Z,1.20
2023-05-02T22:17:17.538Z,1.20
2023-05-02T22:19:50.895Z,1.00
2023-05-02T22:22:19.115Z,2.00
2023-05-02T22:24:47.598Z,1.30
2023-05-02T22:27:16.193Z,1.20
2023-05-02T22:29:45.082Z,1.20
2023-05-02T22:32:13.498Z,1.00
2023-05-02T22:34:42.059Z,1.10
2023-05-02T22:37:10.549Z,1.70
2023-05-02T22:39:38.857Z,1.10
2023-05-02T22:42:07.014Z,2.20
2023-05-02T22:44:46.701Z,1.20
2023-05-02T22:49:48.242Z,1.20
2023-05-02T22:52:18.504Z,1.20
2023-05-02T22:54:46.844Z,1.40
2023-05-02T22:57:15.310Z,1.40
2023-05-02T22:59:43.915Z,1.10
2023-05-02T23:02:13.041Z,1.20
2023-05-02T23:04:41.811Z,1.00
2023-05-02T23:07:10.187Z,1.30
2023-05-02T23:09:38.686Z,1.70
2023-05-02T23:12:07.481Z,1.20
2023-05-02T23:14:35.741Z,1.00
2023-05-02T23:17:04.169Z,1.00
2023-05-02T23:19:33.028Z,1.10
2023-05-02T23:22:01.320Z,1.40
2023-05-02T23:24:29.607Z,1.80
2023-05-02T23:26:58.204Z,1.70
2023-05-02T23:29:26.889Z,1.70
2023-05-02T23:31:55.912Z,1.80
2023-05-02T23:34:24.464Z,2.20
2023-05-02T23:36:53.643Z,1.70
2023-05-02T23:39:22.051Z,1.40
2023-05-02T23:41:50.233Z,1.20
2023-05-02T23:44:18.518Z,1.60
2023-05-02T23:46:46.971Z,1.60
2023-05-02T23:49:15.700Z,1.30
2023-05-02T23:51:44.081Z,1.20
2023-05-02T23:54:12.885Z,1.90
2023-05-02T23:56:41.465Z,1.40
2023-05-02T23:59:11.397Z,1.40
